La Coruna, Spain
Current Conditions -  °F | °C
As of 7:00 PM on Thursday 29 Jan 2015 (Local Time) from LECO Reporting Station
Drizzle Drizzle  
Wind Chill: 55°   Ceiling: 800
Heat Index: 55°   Visibility: 0.56mi
Dew Point: 55°   Wind: 21mph
Humidity: 100%   Direction: 290°WNW
Pressure: 29.83"   Gusts: 37mph
Location:  43.37°N, 8.4°W
Report Text: LECO 291800Z 29018G32KT 240V330 0900 R21/P2000 R03/P2000-DZ BCFG BKN008 OVC012 13/13 Q1010 TEMPO 3000
Loading
Personal Weather Stations






























Interactive Weather Map New forecast layout! Learn more

10-Day Weather Forecast

Advertisements
Track Severe Weather on mobile